createdAt,value
2019-05-13T00:00:24.461Z,73.00
2019-05-13T00:04:26.381Z,76.80
2019-05-13T00:08:28.256Z,77.30
2019-05-13T00:12:30.230Z,78.70
2019-05-13T00:16:34.112Z,78.00
2019-05-13T00:20:36.425Z,78.30
2019-05-13T00:24:38.338Z,79.00
2019-05-13T00:28:40.228Z,79.20
2019-05-13T00:32:44.326Z,80.30
2019-05-13T00:36:45.743Z,81.30
2019-05-13T00:40:47.650Z,79.00
2019-05-13T00:44:49.687Z,75.00
2019-05-13T00:48:54.021Z,76.50
2019-05-13T00:52:55.369Z,79.30
2019-05-13T00:56:57.283Z,79.90
2019-05-13T01:00:59.233Z,79.80
2019-05-13T01:05:01.141Z,77.70
2019-05-13T01:09:04.195Z,78.70
2019-05-13T01:13:06.187Z,79.70
2019-05-13T01:17:08.078Z,79.70
2019-05-13T01:21:09.969Z,79.70
2019-05-13T01:25:14.505Z,78.80
2019-05-13T01:29:16.091Z,80.00
2019-05-13T01:33:17.971Z,73.60
2019-05-13T01:37:23.378Z,74.10
2019-05-13T01:41:24.687Z,73.80
2019-05-13T01:45:26.579Z,75.60
2019-05-13T01:49:28.480Z,73.20
2019-05-13T01:53:30.379Z,74.80
2019-05-13T01:57:34.134Z,75.80
2019-05-13T02:01:36.816Z,75.30
2019-05-13T02:05:38.723Z,74.70
2019-05-13T02:09:40.630Z,74.70
2019-05-13T02:13:44.679Z,76.20
2019-05-13T02:17:46.130Z,74.20
2019-05-13T02:21:48.184Z,74.20
2019-05-13T02:25:50.076Z,73.60
2019-05-13T02:29:53.922Z,76.20
2019-05-13T02:33:55.570Z,75.20
2019-05-13T02:38:14.705Z,74.40
2019-05-13T02:42:03.532Z,75.10
2019-05-13T02:46:05.138Z,75.30
2019-05-13T02:50:08.323Z,75.70
2019-05-13T02:54:12.450Z,75.80
2019-05-13T02:58:13.820Z,76.00
2019-05-13T03:02:15.731Z,77.10
2019-05-13T03:06:17.688Z,76.80
2019-05-13T03:10:22.194Z,77.00
2019-05-13T03:14:24.101Z,78.30
2019-05-13T03:18:26.312Z,78.30
2019-05-13T03:22:31.854Z,77.70
2019-05-13T03:26:32.781Z,78.20
2019-05-13T03:30:35.799Z,80.00
2019-05-13T03:34:37.814Z,80.30
2019-05-13T03:38:59.342Z,81.10
2019-05-13T03:42:49.164Z,80.90
2019-05-13T03:46:54.591Z,82.20
2019-05-13T03:50:57.196Z,81.00
2019-05-13T03:55:02.893Z,80.80
2019-05-13T03:59:04.235Z,81.60
2019-05-13T04:03:06.202Z,81.40
2019-05-13T04:07:08.106Z,82.40
2019-05-13T04:11:12.571Z,83.50
2019-05-13T04:15:15.080Z,83.70
2019-05-13T04:19:17.009Z,84.40
2019-05-13T04:23:18.965Z,84.80
2019-05-13T04:27:23.411Z,85.00
2019-05-13T04:31:26.419Z,85.10
2019-05-13T04:35:28.381Z,85.60
2019-05-13T04:39:44.590Z,82.70
2019-05-13T04:43:34.919Z,83.50
2019-05-13T04:47:36.951Z,83.50
2019-05-13T04:51:41.858Z,82.50
2019-05-13T04:55:43.483Z,82.40
2019-05-13T04:59:45.546Z,81.50
2019-05-13T05:04:27.398Z,81.00
2019-05-13T05:08:47.582Z,82.50
2019-05-13T05:13:17.383Z,81.00
2019-05-13T05:17:58.936Z,80.90
2019-05-13T05:22:45.043Z,80.90
2019-05-13T05:27:23.328Z,81.50
2019-05-13T05:32:06.879Z,80.00
2019-05-13T05:36:34.342Z,80.50
2019-05-13T05:40:38.150Z,79.80
2019-05-13T05:44:44.432Z,78.50
2019-05-13T05:48:52.791Z,78.40
2019-05-13T05:52:55.047Z,78.30
2019-05-13T05:56:58.695Z,78.00
2019-05-13T06:01:03.498Z,77.70
2019-05-13T06:05:06.906Z,77.90
2019-05-13T06:09:08.858Z,76.00
2019-05-13T06:13:12.233Z,75.90
2019-05-13T06:17:14.182Z,75.90
2019-05-13T06:21:16.155Z,76.10
2019-05-13T06:25:18.049Z,76.10
2019-05-13T06:29:22.074Z,75.30
2019-05-13T06:33:23.561Z,74.50
2019-05-13T06:37:25.450Z,76.10
2019-05-13T06:41:27.347Z,76.40
2019-05-13T06:45:31.486Z,74.40
2019-05-13T06:49:32.846Z,75.20
2019-05-13T06:53:34.811Z,73.40
2019-05-13T06:57:36.768Z,71.90
2019-05-13T07:01:38.733Z,72.90
2019-05-13T07:05:42.377Z,72.00
2019-05-13T07:09:44.553Z,70.90
2019-05-13T07:13:46.766Z,69.30
2019-05-13T07:17:48.679Z,69.90
2019-05-13T07:21:52.259Z,69.70
2019-05-13T07:25:55.383Z,69.80
2019-05-13T07:29:57.264Z,68.80
2019-05-13T07:33:59.177Z,65.90
2019-05-13T07:38:02.262Z,67.30
2019-05-13T07:42:06.048Z,66.50
2019-05-13T07:46:08.072Z,66.20
2019-05-13T07:50:12.501Z,64.60
2019-05-13T07:54:13.832Z,66.20
2019-05-13T07:58:15.724Z,62.40
2019-05-13T08:02:17.612Z,62.10
2019-05-13T08:06:22.069Z,62.00
2019-05-13T08:10:23.146Z,61.50
2019-05-13T08:14:25.058Z,59.90
2019-05-13T08:18:26.971Z,58.80
2019-05-13T08:22:28.876Z,58.60
2019-05-13T08:26:32.254Z,57.00
2019-05-13T08:30:34.328Z,57.20
2019-05-13T08:34:37.234Z,52.60
2019-05-13T08:38:39.293Z,52.20
2019-05-13T08:42:42.750Z,51.50
2019-05-13T08:46:44.754Z,49.10
2019-05-13T08:50:46.879Z,46.60
2019-05-13T08:54:48.770Z,46.80
2019-05-13T08:58:52.134Z,46.60
2019-05-13T09:02:54.176Z,48.90
2019-05-13T09:06:56.198Z,47.60
2019-05-13T09:10:58.179Z,46.00
2019-05-13T09:15:03.016Z,45.50
2019-05-13T09:19:04.137Z,45.60
2019-05-13T09:23:06.149Z,44.30
2019-05-13T09:27:08.119Z,44.00
2019-05-13T09:31:12.582Z,42.80
2019-05-13T09:35:13.893Z,42.60
2019-05-13T09:39:15.838Z,41.40
2019-05-13T09:43:22.073Z,43.00
2019-05-13T09:47:23.106Z,41.50
2019-05-13T09:51:25.006Z,38.20
2019-05-13T09:55:29.320Z,37.00
2019-05-13T09:59:31.755Z,37.30
2019-05-13T10:03:34.130Z,37.90
2019-05-13T10:07:36.596Z,32.60
2019-05-13T10:11:38.506Z,35.00
2019-05-13T10:15:42.064Z,36.60
2019-05-13T10:19:44.118Z,38.00
2019-05-13T10:23:46.421Z,39.50
2019-05-13T10:27:48.862Z,41.70
2019-05-13T10:31:51.542Z,38.90
2019-05-13T10:35:54.064Z,37.40
2019-05-13T10:39:56.247Z,38.20
2019-05-13T10:43:58.156Z,36.90
2019-05-13T10:48:02.831Z,36.00
2019-05-13T10:52:03.749Z,36.50
2019-05-13T10:56:05.894Z,35.70
2019-05-13T11:00:12.198Z,35.40
2019-05-13T11:04:14.045Z,33.00
2019-05-13T11:08:15.975Z,35.80
2019-05-13T11:12:17.874Z,33.00
2019-05-13T11:16:21.865Z,30.80
2019-05-13T11:20:23.467Z,31.20
2019-05-13T11:24:25.661Z,32.70
2019-05-13T11:28:27.660Z,29.60
2019-05-13T11:32:31.707Z,28.80
2019-05-13T11:36:33.731Z,28.20
2019-05-13T11:40:35.906Z,30.00
2019-05-13T11:44:37.959Z,29.70
2019-05-13T11:48:42.503Z,33.20
2019-05-13T11:52:43.718Z,30.30
2019-05-13T11:56:50.438Z,30.30
2019-05-13T12:00:56.824Z,31.00
2019-05-13T12:05:03.378Z,32.30
2019-05-13T12:09:04.976Z,31.80
2019-05-13T12:13:06.895Z,30.50
2019-05-13T12:17:08.787Z,31.30
2019-05-13T12:21:12.306Z,31.70
2019-05-13T12:25:14.541Z,30.90
2019-05-13T12:29:19.284Z,30.00
2019-05-13T12:33:22.761Z,30.00
2019-05-13T12:37:24.646Z,29.30
2019-05-13T12:41:26.550Z,27.50
2019-05-13T12:45:28.870Z,27.80
2019-05-13T12:49:33.520Z,27.60
2019-05-13T12:53:35.760Z,27.90
2019-05-13T12:57:38.012Z,27.20
2019-05-13T13:01:40.854Z,27.00
2019-05-13T13:05:43.456Z,27.60
2019-05-13T13:09:45.407Z,27.10
2019-05-13T13:13:59.672Z,27.10
2019-05-13T13:17:53.897Z,27.60
2019-05-13T13:22:02.914Z,26.20
2019-05-13T13:26:03.045Z,27.20
2019-05-13T13:30:08.594Z,26.90
2019-05-13T13:34:16.360Z,27.60
2019-05-13T13:38:12.133Z,28.20
2019-05-13T13:42:14.079Z,28.00
2019-05-13T13:46:41.939Z,26.60
2019-05-13T13:50:23.652Z,26.70
2019-05-13T13:54:23.421Z,27.70
2019-05-13T13:58:25.945Z,27.30
2019-05-13T14:02:28.950Z,27.50
2019-05-13T14:10:34.680Z,28.50
2019-05-13T14:14:36.594Z,27.50
2019-05-13T14:18:38.529Z,27.30
2019-05-13T14:22:41.923Z,28.60
2019-05-13T14:26:44.018Z,28.80
2019-05-13T14:30:45.921Z,27.90
2019-05-13T14:34:47.947Z,27.90
2019-05-13T14:38:52.756Z,27.00
2019-05-13T14:42:53.490Z,28.00
2019-05-13T14:46:56.012Z,27.60
2019-05-13T14:50:59.047Z,28.90
2019-05-13T14:55:02.305Z,25.90
2019-05-13T14:59:04.406Z,26.10
2019-05-13T15:03:06.395Z,26.50
2019-05-13T15:07:08.342Z,26.60
2019-05-13T15:11:12.537Z,26.40
2019-05-13T15:15:15.959Z,26.40
2019-05-13T15:19:17.872Z,26.30
2019-05-13T15:23:22.081Z,25.60
2019-05-13T15:27:23.391Z,26.40
2019-05-13T15:31:25.291Z,28.10
2019-05-13T15:35:27.232Z,29.30
2019-05-13T15:39:31.401Z,26.20
2019-05-13T15:43:32.777Z,28.90
2019-05-13T15:47:34.686Z,27.20
2019-05-13T15:51:36.666Z,27.80
2019-05-13T15:55:38.585Z,27.00
2019-05-13T15:59:41.487Z,27.80
2019-05-13T16:03:43.473Z,27.60
2019-05-13T16:07:45.392Z,27.10
2019-05-13T16:11:47.578Z,28.30
2019-05-13T16:15:49.484Z,28.30
2019-05-13T16:19:53.459Z,30.00
2019-05-13T16:23:56.195Z,29.40
2019-05-13T16:27:58.279Z,29.90
2019-05-13T16:32:01.482Z,29.30
2019-05-13T16:36:04.911Z,29.10
2019-05-13T16:40:08.237Z,29.60
2019-05-13T16:44:11.900Z,31.20
2019-05-13T16:48:13.828Z,31.50
2019-05-13T16:52:15.784Z,30.00
2019-05-13T16:56:27.907Z,30.20
2019-05-13T17:00:27.420Z,31.00
2019-05-13T17:04:29.348Z,30.90
2019-05-13T17:08:33.074Z,30.80
2019-05-13T17:12:34.985Z,31.20
2019-05-13T17:16:36.917Z,32.60
2019-05-13T17:20:41.328Z,32.50
2019-05-13T17:24:42.943Z,33.00
2019-05-13T17:28:44.859Z,34.10
2019-05-13T17:32:46.830Z,34.60
2019-05-13T17:36:51.903Z,34.30
2019-05-13T17:40:53.490Z,36.40
2019-05-13T17:44:56.488Z,37.90
2019-05-13T17:48:58.410Z,37.60
2019-05-13T17:53:02.080Z,38.50
2019-05-13T17:57:04.098Z,39.50
2019-05-13T18:01:05.993Z,39.80
2019-05-13T18:05:09.208Z,38.80
2019-05-13T18:09:11.964Z,38.90
2019-05-13T18:13:14.177Z,39.20
2019-05-13T18:17:16.077Z,39.60
2019-05-13T18:21:18.003Z,40.60
2019-05-13T18:25:22.156Z,40.60
2019-05-13T18:29:23.561Z,41.50
2019-05-13T18:33:26.534Z,41.60
2019-05-13T18:37:28.462Z,42.50
2019-05-13T18:41:31.702Z,43.70
2019-05-13T18:45:33.690Z,42.90
2019-05-13T18:49:35.583Z,43.10
2019-05-13T18:53:37.493Z,44.00
2019-05-13T18:57:39.391Z,44.70
2019-05-13T19:01:41.323Z,44.10
2019-05-13T19:05:43.229Z,45.30
2019-05-13T19:09:46.092Z,45.60
2019-05-13T19:13:48.339Z,45.80
2019-05-13T19:17:52.020Z,47.70
2019-05-13T19:21:54.241Z,48.10
2019-05-13T19:25:56.195Z,48.50
2019-05-13T19:29:58.081Z,49.80
2019-05-13T19:34:01.473Z,51.20
2019-05-13T19:38:03.515Z,52.30
2019-05-13T19:42:05.473Z,54.00
2019-05-13T19:46:07.452Z,54.10
2019-05-13T19:50:09.940Z,56.40
2019-05-13T19:54:11.904Z,56.90
2019-05-13T19:58:13.877Z,57.90
2019-05-13T20:02:15.777Z,59.80
2019-05-13T20:06:17.682Z,61.20
2019-05-13T20:10:19.661Z,62.00
2019-05-13T20:14:22.384Z,64.20
2019-05-13T20:18:26.480Z,65.90
2019-05-13T20:22:28.120Z,67.90
2019-05-13T20:26:32.143Z,68.30
2019-05-13T20:30:34.657Z,69.60
2019-05-13T20:34:36.544Z,69.10
2019-05-13T20:38:38.435Z,70.50
2019-05-13T20:42:41.437Z,70.70
2019-05-13T20:46:43.513Z,72.20
2019-05-13T20:50:45.399Z,72.80
2019-05-13T20:54:47.302Z,72.60
2019-05-13T20:58:51.357Z,73.80
2019-05-13T21:02:52.839Z,73.80
2019-05-13T21:06:56.153Z,73.80
2019-05-13T21:10:58.055Z,74.70
2019-05-13T21:15:01.424Z,75.70
2019-05-13T21:19:03.669Z,76.20
2019-05-13T21:23:05.567Z,76.30
2019-05-13T21:27:07.550Z,76.70
2019-05-13T21:31:11.386Z,76.70
2019-05-13T21:35:13.734Z,77.00
2019-05-13T21:39:15.664Z,77.10
2019-05-13T21:43:17.559Z,77.90
2019-05-13T21:47:21.586Z,78.30
2019-05-13T21:51:23.049Z,78.40
2019-05-13T21:55:24.964Z,78.10
2019-05-13T21:59:26.860Z,78.80
2019-05-13T22:03:28.748Z,79.20
2019-05-13T22:07:31.497Z,79.80
2019-05-13T22:11:35.170Z,80.00
2019-05-13T22:15:37.168Z,80.50
2019-05-13T22:19:39.054Z,80.70
2019-05-13T22:23:41.230Z,80.70
2019-05-13T22:27:43.135Z,80.90
2019-05-13T22:31:45.048Z,81.50
2019-05-13T22:35:46.952Z,81.90
2019-05-13T22:39:48.903Z,82.10
2019-05-13T22:43:58.145Z,82.30
2019-05-13T22:47:54.399Z,83.20
2019-05-13T22:51:56.322Z,83.20
2019-05-13T22:55:58.666Z,83.20
2019-05-13T23:00:00.569Z,83.00
2019-05-13T23:04:02.457Z,82.80
2019-05-13T23:08:04.374Z,82.60
2019-05-13T23:12:07.229Z,82.40
2019-05-13T23:16:11.401Z,82.40
2019-05-13T23:20:12.956Z,82.20
2019-05-13T23:24:15.806Z,82.70
2019-05-13T23:28:17.723Z,82.70
2019-05-13T23:32:21.306Z,83.00
2019-05-13T23:36:23.293Z,83.10
2019-05-13T23:40:25.185Z,83.50
2019-05-13T23:44:28.436Z,84.30
2019-05-13T23:48:32.299Z,84.10
2019-05-13T23:52:34.181Z,84.00
2019-05-13T23:56:36.461Z,84.40
